Time;durP1;ratioP1;P1;durP2;ratioP2;P2;SDS_P1;SDS_P2;PMS_P1;PMS_P2;Temp;Humidity;BMP_temperature;BMP_pressure;BME280_temperature;BME280_humidity;BME280_pressure;Samples;Min_cycle;Max_cycle;Signal;HPM_P1;HPM_P2
2023/05/09 00:01:32;;;;;;;;;;;;;;;15.46;87.51;101734.47;5060575;28;19974;-60
2023/05/09 00:03:58;;;;;;;;;;;;;;;15.45;87.47;101737.31;5060319;28;19921;-59
2023/05/09 00:06:23;;;;;;;;;;;;;;;15.43;87.93;101734.00;5056536;28;20481;-60
2023/05/09 00:08:48;;;;;;;;;;;;;;;15.36;88.02;101730.38;5061268;28;19928;-59
2023/05/09 00:11:13;;;;;;;;;;;;;;;15.26;88.61;101727.09;5061294;28;19923;-61
2023/05/09 00:13:38;;;;;;;;;;;;;;;15.16;88.79;101727.34;5002252;28;1747873;-59
2023/05/09 00:16:04;;;;;;;;;;;;;;;15.12;88.64;101721.53;5067345;28;19916;-59
2023/05/09 00:18:29;;;;;;;;;;;;;;;15.13;88.97;101723.19;5056707;28;19917;-59
2023/05/09 00:20:55;;;;;;;;;;;;;;;15.09;89.28;101721.06;5057587;28;20382;-60
2023/05/09 00:23:20;;;;;;;;;;;;;;;15.00;89.69;101722.09;5057922;28;20424;-60
2023/05/09 00:25:46;;;;;;;;;;;;;;;14.89;89.80;101712.66;5061919;28;19913;-61
2023/05/09 00:28:11;;;;;;;;;;;;;;;14.83;90.11;101708.03;5057622;28;20488;-59
2023/05/09 00:30:36;;;;;;;;;;;;;;;14.80;90.07;101706.53;5060569;28;19970;-59
2023/05/09 00:33:01;;;;;;;;;;;;;;;14.82;89.52;101709.03;5055986;28;20305;-59
2023/05/09 00:35:26;;;;;;;;;;;;;;;14.86;89.85;101703.16;5062334;28;19999;-59
2023/05/09 00:37:52;;;;;;;;;;;;;;;14.87;90.36;101715.50;5052017;28;19917;-61
2023/05/09 00:40:17;;;;;;;;;;;;;;;14.83;90.40;101713.38;5052470;28;19946;-61
2023/05/09 00:42:42;;;;;;;;;;;;;;;14.77;90.48;101706.91;5058753;28;20025;-60
2023/05/09 00:45:08;;;;;;;;;;;;;;;14.67;90.71;101698.25;5062259;28;20396;-61
2023/05/09 00:47:33;;;;;;;;;;;;;;;14.71;90.39;101704.06;5056984;28;19998;-59
2023/05/09 00:49:58;;;;;;;;;;;;;;;14.72;90.73;101697.72;5061204;28;19916;-59
2023/05/09 00:52:25;;;;;;;;;;;;;;;14.66;90.53;101704.59;5055835;28;19955;-60
2023/05/09 00:54:50;;;;;;;;;;;;;;;14.60;91.02;101702.66;5059986;28;19917;-59
2023/05/09 00:57:16;;;;;;;;;;;;;;;14.54;91.32;101708.69;5060456;28;19920;-59
2023/05/09 00:59:41;;;;;;;;;;;;;;;14.48;91.33;101696.88;5060822;28;19982;-59
2023/05/09 01:02:06;;;;;;;;;;;;;;;14.49;91.59;101687.00;5056697;28;19936;-59
2023/05/09 01:04:32;;;;;;;;;;;;;;;14.48;91.49;101691.53;5056370;28;19927;-59
2023/05/09 01:07:02;;;;;;;;;;;;;;;14.47;91.35;101675.66;5058798;28;19924;-59
2023/05/09 01:09:46;;;;;;;;;;;;;;;14.52;91.13;101682.16;5061080;28;19939;-61
2023/05/09 01:12:29;;;;;;;;;;;;;;;14.56;90.93;101670.09;5063006;28;19917;-59
2023/05/09 01:15:00;;;;;;;;;;;;;;;14.61;90.96;101671.41;5061335;28;20062;-59
2023/05/09 01:17:26;;;;;;;;;;;;;;;14.63;91.01;101666.69;5064353;28;19932;-62
2023/05/09 01:20:01;;;;;;;;;;;;;;;14.64;90.92;101663.84;5059350;28;20045;-60
2023/05/09 01:22:29;;;;;;;;;;;;;;;14.66;90.58;101653.81;5056195;28;20001;-59
2023/05/09 01:25:04;;;;;;;;;;;;;;;14.67;90.92;101654.66;5059318;28;19923;-59
2023/05/09 01:27:47;;;;;;;;;;;;;;;14.66;90.85;101651.13;5059682;28;20011;-60
2023/05/09 01:30:13;;;;;;;;;;;;;;;14.68;90.60;101643.78;5060535;28;19913;-59
2023/05/09 01:32:40;;;;;;;;;;;;;;;14.71;90.43;101643.41;5057182;28;19928;-59
2023/05/09 01:35:06;;;;;;;;;;;;;;;14.73;90.47;101637.88;5060134;28;19917;-60
2023/05/09 01:37:35;;;;;;;;;;;;;;;14.73;90.24;101635.22;5058538;28;19912;-59
2023/05/09 01:40:06;;;;;;;;;;;;;;;14.74;90.25;101631.53;5054240;28;20327;-60
2023/05/09 01:42:40;;;;;;;;;;;;;;;14.75;90.08;101625.19;5060656;28;19920;-60
2023/05/09 01:45:06;;;;;;;;;;;;;;;14.76;90.10;101616.16;5058250;28;20405;-59
2023/05/09 01:47:32;;;;;;;;;;;;;;;14.75;89.95;101618.00;5060072;28;19913;-59
2023/05/09 01:50:00;;;;;;;;;;;;;;;14.75;89.68;101614.50;5067123;28;19943;-60
2023/05/09 01:52:25;;;;;;;;;;;;;;;14.77;89.51;101609.81;5068911;28;19923;-61
2023/05/09 01:54:51;;;;;;;;;;;;;;;14.71;89.50;101602.47;5068298;28;19916;-61
2023/05/09 01:57:17;;;;;;;;;;;;;;;14.71;89.59;101611.31;5057172;28;19932;-60
2023/05/09 01:59:43;;;;;;;;;;;;;;;14.69;89.45;101601.81;5062707;28;19912;-60
2023/05/09 02:02:09;;;;;;;;;;;;;;;14.67;89.71;101607.34;5062159;28;19922;-61
2023/05/09 02:04:35;;;;;;;;;;;;;;;14.69;89.50;101601.81;5068252;28;19944;-59
2023/05/09 02:07:00;;;;;;;;;;;;;;;14.69;89.33;101599.97;5061942;28;19938;-60
2023/05/09 02:09:25;;;;;;;;;;;;;;;14.71;89.21;101591.78;5072450;28;19946;-59
2023/05/09 02:11:51;;;;;;;;;;;;;;;14.70;88.96;101588.28;5064581;28;19923;-59
2023/05/09 02:14:16;;;;;;;;;;;;;;;14.70;89.38;101590.13;5063963;28;19920;-61
2023/05/09 02:16:42;;;;;;;;;;;;;;;14.69;89.11;101593.81;5062663;28;19944;-59
2023/05/09 02:19:08;;;;;;;;;;;;;;;14.70;89.28;101592.78;5062601;28;19929;-59
2023/05/09 02:21:33;;;;;;;;;;;;;;;14.71;88.96;101591.78;5065817;28;20344;-60
2023/05/09 02:23:58;;;;;;;;;;;;;;;14.71;89.18;101597.13;5055924;28;19924;-59
2023/05/09 02:26:25;;;;;;;;;;;;;;;14.69;89.12;101602.66;5050615;28;19920;-59
2023/05/09 02:28:50;;;;;;;;;;;;;;;14.63;89.39;101603.38;5061963;28;19955;-59
2023/05/09 02:31:17;;;;;;;;;;;;;;;14.55;89.54;101606.94;5059546;28;19917;-59
2023/05/09 02:33:44;;;;;;;;;;;;;;;14.47;89.27;101603.50;5055085;28;19948;-59
2023/05/09 02:36:09;;;;;;;;;;;;;;;14.38;89.73;101600.00;5070662;28;19955;-61
2023/05/09 02:38:35;;;;;;;;;;;;;;;14.33;89.44;101607.72;5059789;28;19963;-61
2023/05/09 02:41:00;;;;;;;;;;;;;;;14.32;90.11;101603.38;5055946;28;19978;-59
2023/05/09 02:43:25;;;;;;;;;;;;;;;14.26;89.96;101606.78;5064754;28;20030;-60
2023/05/09 02:45:50;;;;;;;;;;;;;;;14.21;90.55;101598.47;5062966;28;19936;-60
2023/05/09 02:48:15;;;;;;;;;;;;;;;14.21;90.32;101606.47;5057360;28;20385;-60
2023/05/09 02:50:42;;;;;;;;;;;;;;;14.24;89.82;101592.75;5051057;28;19927;-60
2023/05/09 02:53:07;;;;;;;;;;;;;;;14.27;90.15;101589.72;5058121;28;20368;-61
2023/05/09 02:55:32;;;;;;;;;;;;;;;14.31;90.12;101582.19;5053021;28;19924;-61
2023/05/09 02:57:57;;;;;;;;;;;;;;;14.33;90.39;101580.16;5063833;28;20390;-60
2023/05/09 03:00:24;;;;;;;;;;;;;;;14.32;90.18;101578.50;5065969;28;19921;-59
2023/05/09 03:02:49;;;;;;;;;;;;;;;14.33;89.88;101570.31;5052778;28;19931;-61
2023/05/09 03:05:15;;;;;;;;;;;;;;;14.31;90.17;101569.66;5054659;28;19917;-61
2023/05/09 03:07:40;;;;;;;;;;;;;;;14.30;89.75;101556.47;5060761;28;19924;-61
2023/05/09 03:10:06;;;;;;;;;;;;;;;14.33;89.82;101554.28;5057044;28;19987;-61
2023/05/09 03:12:31;;;;;;;;;;;;;;;14.37;89.48;101560.09;5060852;28;19917;-60
2023/05/09 03:14:56;;;;;;;;;;;;;;;14.38;89.92;101557.25;5058637;28;20348;-60
2023/05/09 03:17:22;;;;;;;;;;;;;;;14.40;89.94;101554.41;5063609;28;20007;-59
2023/05/09 03:19:47;;;;;;;;;;;;;;;14.39;90.09;101556.25;5059179;28;19916;-59
2023/05/09 03:22:12;;;;;;;;;;;;;;;14.41;89.89;101553.38;5061437;28;19916;-59
2023/05/09 03:24:37;;;;;;;;;;;;;;;14.41;89.66;101548.88;5061490;28;20007;-60
2023/05/09 03:27:03;;;;;;;;;;;;;;;14.43;89.78;101552.22;5055376;28;20381;-59
2023/05/09 03:29:28;;;;;;;;;;;;;;;14.43;89.62;101554.06;5052901;28;19924;-59
2023/05/09 03:31:53;;;;;;;;;;;;;;;14.44;89.68;101550.38;5059553;28;20362;-59
2023/05/09 03:34:18;;;;;;;;;;;;;;;14.46;89.52;101551.06;5057725;28;19924;-59
2023/05/09 03:36:43;;;;;;;;;;;;;;;14.46;89.27;101543.06;5062331;28;20188;-60
2023/05/09 03:39:09;;;;;;;;;;;;;;;14.47;89.25;101547.38;5056968;28;19966;-61
2023/05/09 03:41:35;;;;;;;;;;;;;;;14.48;89.19;101546.38;5057926;28;19917;-61
2023/05/09 03:44:00;;;;;;;;;;;;;;;14.50;89.32;101534.50;5058326;28;20003;-61
2023/05/09 03:46:25;;;;;;;;;;;;;;;14.49;89.07;101532.00;5061918;28;20113;-59
2023/05/09 03:48:50;;;;;;;;;;;;;;;14.49;89.14;101532.81;5068060;28;19912;-59
2023/05/09 03:51:16;;;;;;;;;;;;;;;14.47;89.26;101529.50;5067297;28;19924;-60
2023/05/09 03:53:41;;;;;;;;;;;;;;;14.47;89.17;101526.00;5065527;28;19981;-59
2023/05/09 03:56:06;;;;;;;;;;;;;;;14.45;88.74;101520.81;5056439;28;19925;-60
2023/05/09 03:58:31;;;;;;;;;;;;;;;14.42;88.74;101526.47;5064921;28;19966;-59
2023/05/09 04:00:56;;;;;;;;;;;;;;;14.41;88.88;101518.66;5064267;28;19923;-59
2023/05/09 04:03:22;;;;;;;;;;;;;;;14.39;89.03;101508.13;5059194;28;19916;-59
2023/05/09 04:05:47;;;;;;;;;;;;;;;14.37;88.61;101514.66;5063406;28;19956;-59
2023/05/09 04:08:12;;;;;;;;;;;;;;;14.35;88.76;101514.84;5063039;28;19917;-59
2023/05/09 04:10:37;;;;;;;;;;;;;;;14.33;88.80;101514.19;5063028;28;20310;-59
2023/05/09 04:13:03;;;;;;;;;;;;;;;14.34;88.54;101510.53;5062164;28;19923;-59
2023/05/09 04:15:28;;;;;;;;;;;;;;;14.33;88.80;101506.19;5059757;28;19916;-59
2023/05/09 04:17:53;;;;;;;;;;;;;;;14.31;88.64;101497.53;5060171;28;19922;-59
2023/05/09 04:20:18;;;;;;;;;;;;;;;14.30;88.58;101489.69;5064707;28;19919;-59
2023/05/09 04:22:43;;;;;;;;;;;;;;;14.28;88.56;101495.22;5068217;28;19920;-59
2023/05/09 04:25:13;;;;;;;;;;;;;;;14.26;88.47;101483.88;5066785;28;19920;-59
2023/05/09 04:27:38;;;;;;;;;;;;;;;14.25;88.44;101491.06;5066714;28;21565;-59
2023/05/09 04:30:04;;;;;;;;;;;;;;;14.25;88.21;101490.22;5067222;28;20014;-59
2023/05/09 04:32:29;;;;;;;;;;;;;;;14.24;88.67;101491.25;5067082;28;19913;-59
2023/05/09 04:34:54;;;;;;;;;;;;;;;14.22;88.71;101493.25;5058992;28;19912;-60
2023/05/09 04:37:19;;;;;;;;;;;;;;;14.20;88.82;101495.28;5064386;28;19920;-59
2023/05/09 04:39:44;;;;;;;;;;;;;;;14.21;89.14;101491.59;5064876;28;19921;-59
2023/05/09 04:42:10;;;;;;;;;;;;;;;14.20;89.07;101490.75;5067368;28;19961;-60
2023/05/09 04:44:35;;;;;;;;;;;;;;;14.19;89.32;101489.09;5062349;28;19920;-59
2023/05/09 04:47:00;;;;;;;;;;;;;;;14.19;89.12;101482.94;5065529;28;20001;-59
2023/05/09 04:49:26;;;;;;;;;;;;;;;14.20;89.20;101488.09;5064505;28;20411;-59
2023/05/09 04:51:51;;;;;;;;;;;;;;;14.21;89.18;101480.91;5070296;28;19916;-59
2023/05/09 04:54:16;;;;;;;;;;;;;;;14.22;89.38;101479.91;5070703;28;19999;-59
2023/05/09 04:56:41;;;;;;;;;;;;;;;14.26;89.13;101473.19;5070197;28;19923;-59
2023/05/09 04:59:06;;;;;;;;;;;;;;;14.29;89.16;101472.00;5069224;28;20031;-59
2023/05/09 05:01:31;;;;;;;;;;;;;;;14.34;89.64;101475.78;5069288;28;19923;-59
2023/05/09 05:03:57;;;;;;;;;;;;;;;14.35;89.99;101472.09;5070144;28;19924;-59
2023/05/09 05:06:22;;;;;;;;;;;;;;;14.39;89.62;101467.22;5063687;28;19948;-59
2023/05/09 05:08:47;;;;;;;;;;;;;;;14.41;89.37;101462.53;5067934;28;19912;-60
2023/05/09 05:11:12;;;;;;;;;;;;;;;14.44;89.62;101455.00;5063126;28;19917;-60
2023/05/09 05:13:37;;;;;;;;;;;;;;;14.45;90.38;101455.84;5058854;28;19924;-60
2023/05/09 05:16:03;;;;;;;;;;;;;;;14.45;90.22;101450.50;5068339;28;19920;-57
2023/05/09 05:18:28;;;;;;;;;;;;;;;14.46;89.74;101447.66;5069162;28;20342;-57
2023/05/09 05:20:53;;;;;;;;;;;;;;;14.48;89.63;101432.28;5069553;28;19947;-57
2023/05/09 05:23:18;;;;;;;;;;;;;;;14.49;89.60;101431.28;5068380;28;19928;-57
2023/05/09 05:25:44;;;;;;;;;;;;;;;14.50;89.84;101427.59;5068372;28;19975;-57
2023/05/09 05:28:09;;;;;;;;;;;;;;;14.53;89.44;101429.06;5065744;28;19916;-57
2023/05/09 05:30:34;;;;;;;;;;;;;;;14.54;89.40;101426.19;5064173;28;19916;-57
2023/05/09 05:32:59;;;;;;;;;;;;;;;14.55;89.35;101417.16;5063509;28;19916;-57
2023/05/09 05:35:27;;;;;;;;;;;;;;;14.56;89.37;101426.84;5059956;28;20279;-57
2023/05/09 05:37:52;;;;;;;;;;;;;;;14.59;89.25;101420.31;5068654;28;19916;-58
2023/05/09 05:40:17;;;;;;;;;;;;;;;14.60;89.42;101416.63;5062127;28;20464;-57
2023/05/09 05:42:43;;;;;;;;;;;;;;;14.64;89.85;101415.22;5060346;28;19921;-57
2023/05/09 05:45:08;;;;;;;;;;;;;;;14.66;89.64;101413.22;5063852;28;20401;-57
2023/05/09 05:47:34;;;;;;;;;;;;;;;14.68;89.75;101415.69;5058074;28;20402;-57
2023/05/09 05:50:00;;;;;;;;;;;;;;;14.67;90.00;101411.38;5052424;28;19924;-57
2023/05/09 05:52:25;;;;;;;;;;;;;;;14.69;90.06;101410.16;5056602;28;19917;-57
2023/05/09 05:54:51;;;;;;;;;;;;;;;14.67;90.42;101412.19;5064821;28;20003;-57
2023/05/09 05:57:16;;;;;;;;;;;;;;;14.69;90.25;101404.00;5058137;28;19917;-57
2023/05/09 05:59:41;;;;;;;;;;;;;;;14.72;90.21;101406.28;5058768;28;20329;-58
2023/05/09 06:02:06;;;;;;;;;;;;;;;14.74;89.74;101396.25;5062433;28;19920;-57
2023/05/09 06:04:31;;;;;;;;;;;;;;;14.76;89.59;101396.91;5060150;28;19925;-57
2023/05/09 06:06:57;;;;;;;;;;;;;;;14.79;89.82;101399.22;5062657;28;19917;-58
2023/05/09 06:09:22;;;;;;;;;;;;;;;14.81;89.70;101403.38;5060926;28;19916;-57
2023/05/09 06:11:47;;;;;;;;;;;;;;;14.82;89.71;101396.16;5055870;28;19913;-57
2023/05/09 06:14:12;;;;;;;;;;;;;;;14.81;89.62;101387.31;5066978;28;20397;-57
2023/05/09 06:16:37;;;;;;;;;;;;;;;14.81;89.24;101379.31;5065921;28;19925;-57
2023/05/09 06:19:03;;;;;;;;;;;;;;;14.83;89.22;101382.63;5058856;28;19956;-59
2023/05/09 06:21:28;;;;;;;;;;;;;;;14.86;89.25;101378.75;5060744;28;20005;-58
2023/05/09 06:23:53;;;;;;;;;;;;;;;14.90;89.64;101376.50;5067866;28;19974;-58
2023/05/09 06:26:18;;;;;;;;;;;;;;;14.90;89.84;101371.16;5060928;28;19921;-58
2023/05/09 06:28:43;;;;;;;;;;;;;;;14.86;89.79;101368.88;5067300;28;19970;-58
2023/05/09 06:31:08;;;;;;;;;;;;;;;14.82;89.84;101377.44;5057865;28;20375;-58
2023/05/09 06:33:34;;;;;;;;;;;;;;;14.81;90.17;101371.28;5060636;28;19919;-58
2023/05/09 06:35:59;;;;;;;;;;;;;;;14.78;90.13;101379.66;5061287;28;20338;-58
2023/05/09 06:38:24;;;;;;;;;;;;;;;14.79;90.50;101373.31;5066174;28;19912;-58
2023/05/09 06:40:49;;;;;;;;;;;;;;;14.83;90.34;101374.59;5069404;28;19982;-57
2023/05/09 06:43:14;;;;;;;;;;;;;;;14.88;90.46;101368.69;5066597;28;19924;-58
2023/05/09 06:45:40;;;;;;;;;;;;;;;14.93;90.17;101368.94;5069004;28;19912;-58
2023/05/09 06:48:05;;;;;;;;;;;;;;;14.96;90.18;101368.56;5067761;28;19916;-58
2023/05/09 06:50:30;;;;;;;;;;;;;;;14.99;90.64;101367.38;5069139;28;19912;-58
2023/05/09 06:52:55;;;;;;;;;;;;;;;14.99;90.33;101362.03;5059610;28;19942;-58
2023/05/09 06:55:21;;;;;;;;;;;;;;;14.98;90.14;101353.16;5064102;28;19970;-58
2023/05/09 06:57:46;;;;;;;;;;;;;;;14.97;90.58;101354.19;5062205;28;20563;-58
2023/05/09 07:00:11;;;;;;;;;;;;;;;15.00;90.56;101353.81;5064441;28;19947;-58
2023/05/09 07:02:40;;;;;;;;;;;;;;;15.06;90.36;101358.44;5066808;28;20309;-58
2023/05/09 07:05:05;;;;;;;;;;;;;;;15.11;90.40;101342.66;5063096;28;19912;-58
2023/05/09 07:07:30;;;;;;;;;;;;;;;15.14;90.44;101347.63;5056053;28;20393;-58
2023/05/09 07:09:56;;;;;;;;;;;;;;;15.21;90.53;101338.84;5063263;28;20057;-58
2023/05/09 07:12:21;;;;;;;;;;;;;;;15.25;90.35;101340.94;5066672;28;20400;-58
2023/05/09 07:14:46;;;;;;;;;;;;;;;15.25;90.05;101340.09;5065265;28;19948;-58
2023/05/09 07:17:11;;;;;;;;;;;;;;;15.22;90.11;101337.81;5067061;28;19993;-58
2023/05/09 07:19:36;;;;;;;;;;;;;;;15.16;89.87;101326.84;5067902;28;19916;-58
2023/05/09 07:22:02;;;;;;;;;;;;;;;15.13;89.92;101331.75;5056107;28;20017;-58
2023/05/09 07:24:27;;;;;;;;;;;;;;;15.08;89.72;101334.16;5066577;28;19928;-58
2023/05/09 07:26:52;;;;;;;;;;;;;;;15.03;89.63;101329.34;5066982;28;20057;-58
2023/05/09 07:29:19;;;;;;;;;;;;;;;15.00;89.45;101335.09;5057154;28;19913;-58
2023/05/09 07:31:44;;;;;;;;;;;;;;;14.95;89.24;101331.31;5060475;28;20070;-58
2023/05/09 07:34:09;;;;;;;;;;;;;;;14.92;89.89;101329.03;5065335;28;20393;-59
2023/05/09 07:36:36;;;;;;;;;;;;;;;14.87;89.75;101322.41;5067443;28;19919;-59
2023/05/09 07:39:01;;;;;;;;;;;;;;;14.85;90.06;101327.09;5068506;28;19912;-59
2023/05/09 07:41:26;;;;;;;;;;;;;;;14.85;89.99;101327.09;5067966;28;19923;-59
2023/05/09 07:43:51;;;;;;;;;;;;;;;14.83;90.47;101320.28;5056445;28;19921;-59
2023/05/09 07:46:16;;;;;;;;;;;;;;;14.78;90.99;101322.69;5056191;28;19927;-59
2023/05/09 07:48:42;;;;;;;;;;;;;;;14.74;91.12;101319.53;5056517;28;19991;-59
2023/05/09 07:51:07;;;;;;;;;;;;;;;14.74;91.84;101318.72;5061814;28;20012;-59
2023/05/09 07:53:32;;;;;;;;;;;;;;;14.72;92.41;101313.53;5056651;28;19913;-59
2023/05/09 07:55:58;;;;;;;;;;;;;;;14.65;92.54;101312.63;5062867;28;19918;-59
2023/05/09 07:58:23;;;;;;;;;;;;;;;14.59;92.80;101318.72;5059490;28;19952;-59
2023/05/09 08:00:48;;;;;;;;;;;;;;;14.54;93.45;101311.28;5061085;28;19962;-59
2023/05/09 08:03:13;;;;;;;;;;;;;;;14.52;94.08;101307.13;5068072;28;19916;-59
2023/05/09 08:05:38;;;;;;;;;;;;;;;14.50;94.36;101299.28;5066878;28;20485;-58
2023/05/09 08:08:03;;;;;;;;;;;;;;;14.51;94.59;101295.59;5066098;28;19917;-58
2023/05/09 08:10:32;;;;;;;;;;;;;;;14.48;95.07;101304.00;5064827;28;20011;-59
2023/05/09 08:12:57;;;;;;;;;;;;;;;14.46;95.47;101298.00;5062293;28;19921;-59
2023/05/09 08:15:22;;;;;;;;;;;;;;;14.41;95.47;101292.34;5064378;28;19920;-59
2023/05/09 08:17:48;;;;;;;;;;;;;;;14.37;95.84;101295.56;5066468;28;19963;-59
2023/05/09 08:20:13;;;;;;;;;;;;;;;14.35;95.79;101287.72;5062805;28;19979;-59
2023/05/09 08:22:38;;;;;;;;;;;;;;;14.38;96.55;101284.69;5066542;28;19925;-58
2023/05/09 08:25:04;;;;;;;;;;;;;;;14.40;96.14;101276.50;5067576;28;20558;-59
2023/05/09 08:27:29;;;;;;;;;;;;;;;14.43;96.29;101276.97;5070422;28;19913;-58
2023/05/09 08:29:54;;;;;;;;;;;;;;;14.45;96.25;101271.44;5068135;28;19917;-59
2023/05/09 08:32:19;;;;;;;;;;;;;;;14.46;96.76;101268.63;5071444;28;20061;-58
2023/05/09 08:34:45;;;;;;;;;;;;;;;14.43;96.40;101266.28;5062299;28;19928;-59
2023/05/09 08:37:10;;;;;;;;;;;;;;;14.42;96.88;101266.44;5056312;28;19916;-59
2023/05/09 08:39:35;;;;;;;;;;;;;;;14.43;96.61;101265.47;5066995;28;19912;-59
2023/05/09 08:42:01;;;;;;;;;;;;;;;14.48;96.58;101263.09;5072797;28;19912;-58
2023/05/09 08:44:27;;;;;;;;;;;;;;;14.54;96.62;101260.50;5061981;28;19917;-58
2023/05/09 08:46:58;;;;;;;;;;;;;;;14.57;96.65;101254.78;5071580;28;20428;-58
2023/05/09 08:49:23;;;;;;;;;;;;;;;14.57;96.70;101260.13;5070984;28;19913;-59
2023/05/09 08:51:48;;;;;;;;;;;;;;;14.56;96.58;101249.63;5069704;28;19924;-59
2023/05/09 08:54:14;;;;;;;;;;;;;;;14.54;96.30;101252.47;5069154;28;19923;-58
2023/05/09 08:56:39;;;;;;;;;;;;;;;14.53;96.67;101252.66;5070646;28;19917;-59
2023/05/09 08:59:05;;;;;;;;;;;;;;;14.50;96.53;101250.38;5071155;28;19916;-58
2023/05/09 09:01:32;;;;;;;;;;;;;;;14.46;96.51;101244.56;5069850;28;19939;-59
2023/05/09 09:03:57;;;;;;;;;;;;;;;14.47;96.83;101240.06;5064945;28;19921;-59
2023/05/09 09:06:24;;;;;;;;;;;;;;;14.50;97.06;101243.19;5063240;28;19920;-57
2023/05/09 09:08:49;;;;;;;;;;;;;;;14.50;96.99;101247.69;5064161;28;19920;-59
2023/05/09 09:11:16;;;;;;;;;;;;;;;14.49;96.99;101238.03;5075953;28;19912;-59
2023/05/09 09:13:42;;;;;;;;;;;;;;;14.50;97.16;101240.50;5070021;28;20007;-59
2023/05/09 09:16:10;;;;;;;;;;;;;;;14.49;97.10;101238.03;5070449;28;20415;-59
2023/05/09 09:18:35;;;;;;;;;;;;;;;14.54;97.94;101238.28;5069323;28;19942;-59
2023/05/09 09:21:04;;;;;;;;;;;;;;;14.51;97.83;101227.97;5071409;28;19912;-59
2023/05/09 09:23:31;;;;;;;;;;;;;;;14.52;98.06;101232.28;5065655;28;20365;-59
2023/05/09 09:26:05;;;;;;;;;;;;;;;14.48;97.62;101228.34;5070956;28;19921;-59
2023/05/09 09:28:31;;;;;;;;;;;;;;;14.51;97.65;101226.13;5069297;28;19999;-59
2023/05/09 09:30:56;;;;;;;;;;;;;;;14.59;97.85;101221.69;5067555;28;20428;-59
2023/05/09 09:33:22;;;;;;;;;;;;;;;14.58;97.66;101228.88;5067100;28;19924;-59
2023/05/09 09:35:52;;;;;;;;;;;;;;;14.58;97.98;101220.84;5067953;28;19921;-59
2023/05/09 09:38:18;;;;;;;;;;;;;;;14.58;97.71;101226.19;5064785;28;19927;-59
2023/05/09 09:40:47;;;;;;;;;;;;;;;14.56;97.96;101218.38;5066387;28;19916;-58
2023/05/09 09:43:12;;;;;;;;;;;;;;;14.55;97.62;101216.72;5066424;28;19927;-59
2023/05/09 09:45:40;;;;;;;;;;;;;;;14.61;97.65;101209.78;5068492;28;19999;-59
2023/05/09 09:48:05;;;;;;;;;;;;;;;14.63;98.07;101215.75;5070254;28;20398;-59
2023/05/09 09:50:31;;;;;;;;;;;;;;;14.63;98.21;101213.09;5069383;28;19967;-59
2023/05/09 09:52:56;;;;;;;;;;;;;;;14.69;97.97;101211.50;5068963;28;19946;-58
2023/05/09 09:55:22;;;;;;;;;;;;;;;14.70;98.02;101205.97;5062371;28;19920;-59
2023/05/09 09:57:48;;;;;;;;;;;;;;;14.81;98.18;101210.00;5069390;28;19982;-59
2023/05/09 10:00:15;;;;;;;;;;;;;;;14.86;98.03;101205.75;5068464;28;20377;-59
2023/05/09 10:02:56;;;;;;;;;;;;;;;14.92;97.83;101196.13;5069595;28;19931;-59
2023/05/09 10:05:21;;;;;;;;;;;;;;;14.90;97.69;101194.66;5068719;28;19958;-58
2023/05/09 10:07:53;;;;;;;;;;;;;;;14.89;97.44;101191.16;5069506;28;19948;-58
2023/05/09 10:10:19;;;;;;;;;;;;;;;14.91;97.42;101189.13;5074047;28;20370;-59
2023/05/09 10:12:44;;;;;;;;;;;;;;;14.98;97.40;101190.03;5062864;28;19921;-59
2023/05/09 10:15:11;;;;;;;;;;;;;;;14.96;97.50;101192.06;5066028;28;20612;-59
2023/05/09 10:17:36;;;;;;;;;;;;;;;14.96;97.19;101189.38;5056140;28;19916;-58
2023/05/09 10:20:03;;;;;;;;;;;;;;;14.98;97.18;101183.84;5067363;28;19917;-59
2023/05/09 10:22:29;;;;;;;;;;;;;;;15.04;96.82;101188.44;5064868;28;20008;-59
2023/05/09 10:25:00;;;;;;;;;;;;;;;15.07;97.04;101182.72;5053520;28;20047;-59
2023/05/09 10:27:26;;;;;;;;;;;;;;;15.02;96.96;101177.91;5063869;28;19952;-58
2023/05/09 10:30:00;;;;;;;;;;;;;;;15.05;96.75;101169.53;5067090;28;19948;-59
2023/05/09 10:32:46;;;;;;;;;;;;;;;15.08;96.53;101174.50;5064523;28;19912;-58
2023/05/09 10:35:12;;;;;;;;;;;;;;;15.10;96.41;101167.09;5062124;28;20011;-59
2023/05/09 10:37:38;;;;;;;;;;;;;;;15.15;96.24;101164.69;5061158;28;19920;-59
2023/05/09 10:40:03;;;;;;;;;;;;;;;15.14;96.23;101163.03;5066895;28;19923;-58
2023/05/09 10:42:29;;;;;;;;;;;;;;;15.12;96.31;101158.88;5055027;28;20031;-59
2023/05/09 10:44:55;;;;;;;;;;;;;;;15.12;95.99;101154.38;5060750;28;19928;-59
2023/05/09 10:47:20;;;;;;;;;;;;;;;15.12;96.09;101153.53;5066008;28;19920;-58
2023/05/09 10:49:47;;;;;;;;;;;;;;;15.09;96.14;101149.41;5058057;28;19924;-59
2023/05/09 10:52:13;;;;;;;;;;;;;;;15.10;96.03;101145.72;5063579;28;19962;-58
2023/05/09 10:54:38;;;;;;;;;;;;;;;15.12;96.33;101142.84;5056811;28;19912;-59
2023/05/09 10:57:05;;;;;;;;;;;;;;;15.14;96.09;101140.78;5062637;28;19994;-59
2023/05/09 10:59:38;;;;;;;;;;;;;;;15.13;96.29;101137.28;5066900;28;19916;-59
2023/05/09 11:02:04;;;;;;;;;;;;;;;15.03;96.40;101125.25;5061653;28;19925;-58
2023/05/09 11:04:31;;;;;;;;;;;;;;;15.01;96.03;101130.78;5065760;28;19927;-58
2023/05/09 11:06:56;;;;;;;;;;;;;;;15.06;96.09;101132.91;5059438;28;20746;-59
2023/05/09 11:09:28;;;;;;;;;;;;;;;15.09;96.85;101129.84;5059718;28;20007;-58
2023/05/09 11:11:59;;;;;;;;;;;;;;;15.09;96.88;101128.00;5067302;28;19916;-59
2023/05/09 11:14:40;;;;;;;;;;;;;;;15.07;97.32;101121.19;5068401;28;19925;-59
2023/05/09 11:17:06;;;;;;;;;;;;;;;15.09;97.15;101125.31;5059921;28;20393;-59
2023/05/09 11:19:38;;;;;;;;;;;;;;;15.03;97.31;101128.75;5061365;28;19962;-59
2023/05/09 11:22:14;;;;;;;;;;;;;;;14.90;97.66;101122.47;5057431;28;19951;-59
2023/05/09 11:24:43;;;;;;;;;;;;;;;14.75;97.80;101111.84;5061948;28;20517;-59
2023/05/09 11:27:14;;;;;;;;;;;;;;;14.76;98.29;101121.53;5062354;28;19920;-58
2023/05/09 11:29:50;;;;;;;;;;;;;;;14.71;99.02;101111.38;5060195;28;19924;-58
2023/05/09 11:32:15;;;;;;;;;;;;;;;14.59;98.83;101104.06;5067099;28;19995;-59
2023/05/09 11:34:42;;;;;;;;;;;;;;;14.47;98.63;101111.78;5067823;28;20019;-59
2023/05/09 11:37:11;;;;;;;;;;;;;;;14.35;98.71;101113.25;5057182;28;19943;-59
2023/05/09 11:39:54;;;;;;;;;;;;;;;14.32;99.09;101121.63;5051919;28;20402;-58
2023/05/09 11:42:20;;;;;;;;;;;;;;;14.25;99.29;101108.22;5059361;28;19963;-58
2023/05/09 11:44:47;;;;;;;;;;;;;;;14.23;100.00;101110.25;5058787;28;19959;-58
2023/05/09 11:47:12;;;;;;;;;;;;;;;14.21;100.00;101106.94;5062810;28;20336;-58
2023/05/09 11:49:41;;;;;;;;;;;;;;;14.17;100.00;101098.47;5067225;28;19924;-58
2023/05/09 11:52:06;;;;;;;;;;;;;;;14.15;100.00;101102.31;5064421;28;19919;-58
2023/05/09 11:54:31;;;;;;;;;;;;;;;14.09;100.00;101093.22;5067280;28;19966;-58
2023/05/09 11:56:58;;;;;;;;;;;;;;;14.09;100.00;101095.06;5067131;28;19921;-59
2023/05/09 11:59:23;;;;;;;;;;;;;;;14.07;100.00;101094.41;5061832;28;20341;-58
2023/05/09 12:01:49;;;;;;;;;;;;;;;14.06;100.00;101084.75;5064517;28;19923;-58
2023/05/09 12:04:14;;;;;;;;;;;;;;;14.04;100.00;101079.59;5063297;28;19923;-58
2023/05/09 12:06:45;;;;;;;;;;;;;;;14.06;100.00;101077.56;5065635;28;19928;-59
2023/05/09 12:09:11;;;;;;;;;;;;;;;14.14;100.00;101072.09;5060918;28;20293;-58
2023/05/09 12:11:37;;;;;;;;;;;;;;;14.17;100.00;101073.59;5061632;28;20445;-58
2023/05/09 12:14:02;;;;;;;;;;;;;;;14.16;100.00;101078.09;5058960;28;19917;-59
2023/05/09 12:16:27;;;;;;;;;;;;;;;14.13;100.00;101081.13;5060551;28;19926;-58
2023/05/09 12:18:53;;;;;;;;;;;;;;;14.14;100.00;101068.59;5063668;28;19917;-58
2023/05/09 12:21:19;;;;;;;;;;;;;;;14.12;100.00;101068.78;5060398;28;19924;-59
2023/05/09 12:23:47;;;;;;;;;;;;;;;14.09;100.00;101071.03;5055725;28;19920;-58
2023/05/09 12:26:13;;;;;;;;;;;;;;;14.09;100.00;101071.03;5060068;28;19916;-58
2023/05/09 12:28:38;;;;;;;;;;;;;;;14.03;100.00;101061.09;5058531;28;19917;-59
2023/05/09 12:31:05;;;;;;;;;;;;;;;14.00;100.00;101064.97;5056573;28;19912;-58